Time;durP1;ratioP1;P1;durP2;ratioP2;P2;SDS_P1;SDS_P2;PMS_P1;PMS_P2;Temp;Humidity;BMP_temperature;BMP_pressure;BME280_temperature;BME280_humidity;BME280_pressure;Samples;Min_cycle;Max_cycle;Signal;HPM_P1;HPM_P2
2023/12/11 00:02:10;;;;;;;0.50;0.50;;;14.40;72.10;;;;;;5014476;28;20116;-72
2023/12/11 00:04:35;;;;;;;0.40;0.40;;;14.50;72.00;;;;;;5024700;28;20029;-72
2023/12/11 00:07:00;;;;;;;0.40;0.40;;;14.50;72.00;;;;;;5034689;28;20091;-72
2023/12/11 00:09:26;;;;;;;0.50;0.50;;;14.50;71.90;;;;;;5034424;28;20033;-72
2023/12/11 00:11:51;;;;;;;0.52;0.52;;;14.50;71.90;;;;;;5014525;28;20025;-72
2023/12/11 00:14:17;;;;;;;0.60;0.60;;;14.50;71.80;;;;;;5032639;28;20068;-72
2023/12/11 00:16:44;;;;;;;0.50;0.50;;;14.50;71.70;;;;;;5031555;28;20465;-72
2023/12/11 00:19:10;;;;;;;0.40;0.40;;;14.50;71.50;;;;;;5026382;28;20116;-72
2023/12/11 00:21:36;;;;;;;0.60;0.60;;;14.50;71.60;;;;;;5029532;28;20480;-72
2023/12/11 00:24:01;;;;;;;0.50;0.50;;;14.40;71.50;;;;;;5032107;28;20053;-72
2023/12/11 00:26:27;;;;;;;4.78;1.42;;;14.40;71.60;;;;;;5014245;28;20094;-72
2023/12/11 00:28:52;;;;;;;5.70;2.00;;;14.40;71.60;;;;;;5021439;28;20060;-72
2023/12/11 00:31:18;;;;;;;0.50;0.50;;;14.40;71.60;;;;;;5033669;28;20029;-72
2023/12/11 00:33:43;;;;;;;0.55;0.55;;;14.40;71.70;;;;;;5048753;28;20183;-72
2023/12/11 00:36:09;;;;;;;0.50;0.50;;;14.40;71.80;;;;;;5033598;28;20033;-72
2023/12/11 00:38:34;;;;;;;0.50;0.50;;;14.40;71.60;;;;;;5033173;28;20033;-72
2023/12/11 00:41:00;;;;;;;0.40;0.40;;;14.40;71.60;;;;;;5015338;28;20033;-72
2023/12/11 00:43:25;;;;;;;0.73;0.73;;;14.40;71.70;;;;;;5033010;28;20044;-72
2023/12/11 00:45:51;;;;;;;0.90;0.90;;;14.40;71.80;;;;;;5032993;28;20053;-72
2023/12/11 00:48:16;;;;;;;0.60;0.60;;;14.40;71.70;;;;;;5031732;28;20034;-71
2023/12/11 00:50:42;;;;;;;0.40;0.40;;;14.50;71.80;;;;;;5032264;28;20415;-71
2023/12/11 00:53:07;;;;;;;0.47;0.47;;;14.40;71.70;;;;;;5031852;28;20083;-71
2023/12/11 00:55:33;;;;;;;0.70;0.70;;;14.50;71.70;;;;;;5036291;28;20431;-72
2023/12/11 00:57:58;;;;;;;0.57;0.57;;;14.40;71.40;;;;;;5034854;28;20022;-71
2023/12/11 01:00:24;;;;;;;0.43;0.43;;;14.40;71.30;;;;;;5035005;28;20029;-71
2023/12/11 01:02:49;;;;;;;0.35;0.35;;;14.40;71.50;;;;;;5036006;28;20033;-71
2023/12/11 01:05:15;;;;;;;0.40;0.40;;;14.30;71.40;;;;;;5035452;28;20384;-71
2023/12/11 01:07:40;;;;;;;0.40;0.40;;;14.30;71.40;;;;;;5018057;28;20033;-71
2023/12/11 01:10:06;;;;;;;0.40;0.40;;;14.30;71.40;;;;;;5035958;28;20120;-71
2023/12/11 01:12:32;;;;;;;0.57;0.57;;;14.30;71.40;;;;;;5035989;28;20033;-71
2023/12/11 01:14:57;;;;;;;0.40;0.40;;;14.20;71.50;;;;;;5037292;28;20035;-71
2023/12/11 01:17:23;;;;;;;0.50;0.50;;;14.20;71.60;;;;;;5036085;28;20053;-72
2023/12/11 01:19:48;;;;;;;0.50;0.50;;;14.20;71.70;;;;;;5037316;28;20064;-71
2023/12/11 01:22:14;;;;;;;0.40;0.40;;;14.20;71.90;;;;;;5036529;28;20026;-71
2023/12/11 01:24:39;;;;;;;0.50;0.50;;;14.20;71.80;;;;;;5037024;28;20057;-71
2023/12/11 01:27:05;;;;;;;0.40;0.40;;;14.30;71.90;;;;;;5036364;28;20100;-71
2023/12/11 01:29:30;;;;;;;1.27;1.17;;;14.30;71.90;;;;;;5036577;28;20385;-71
2023/12/11 01:31:57;;;;;;;0.40;0.40;;;14.30;71.80;;;;;;5036667;28;20025;-71
2023/12/11 01:34:22;;;;;;;0.50;0.50;;;14.30;71.80;;;;;;5037115;28;20037;-71
2023/12/11 01:36:48;;;;;;;0.40;0.40;;;14.30;71.90;;;;;;5025953;28;20366;-71
2023/12/11 01:39:13;;;;;;;0.70;0.70;;;14.30;71.80;;;;;;5020465;28;20112;-71
2023/12/11 01:41:39;;;;;;;1.02;1.02;;;14.30;71.70;;;;;;5037267;28;20022;-71
2023/12/11 01:44:05;;;;;;;0.40;0.40;;;14.40;71.70;;;;;;5038469;28;20050;-71
2023/12/11 01:46:31;;;;;;;0.68;0.68;;;14.40;71.80;;;;;;5037084;28;20423;-71
2023/12/11 01:48:56;;;;;;;1.85;1.52;;;14.40;71.80;;;;;;5038137;28;20035;-71
2023/12/11 01:51:22;;;;;;;0.82;0.82;;;14.40;71.70;;;;;;5038200;28;20103;-71
2023/12/11 01:53:50;;;;;;;0.68;0.68;;;14.40;71.80;;;;;;5037429;28;20065;-71
2023/12/11 01:56:17;;;;;;;0.60;0.60;;;14.30;71.40;;;;;;5037215;28;20538;-71
2023/12/11 01:58:43;;;;;;;0.68;0.68;;;14.30;71.40;;;;;;5035495;28;20025;-71
2023/12/11 02:01:10;;;;;;;0.60;0.60;;;14.30;71.40;;;;;;5029476;28;20025;-71
2023/12/11 02:03:36;;;;;;;0.40;0.40;;;14.30;71.20;;;;;;5038832;28;20029;-71
2023/12/11 02:06:02;;;;;;;0.50;0.50;;;14.20;71.00;;;;;;5030984;28;20026;-71
2023/12/11 02:08:28;;;;;;;0.50;0.50;;;14.10;70.70;;;;;;5037315;28;20041;-71
2023/12/11 02:10:54;;;;;;;1.05;0.88;;;14.00;70.60;;;;;;5038779;28;20033;-71
2023/12/11 02:13:21;;;;;;;0.50;0.50;;;13.80;70.40;;;;;;5037884;28;20503;-71
2023/12/11 02:15:47;;;;;;;5.38;0.95;;;13.80;70.50;;;;;;5038338;28;20033;-71
2023/12/11 02:18:14;;;;;;;0.50;0.50;;;13.70;70.60;;;;;;5038888;28;20037;-71
2023/12/11 02:20:41;;;;;;;1.10;1.02;;;13.60;70.50;;;;;;5035064;28;20022;-71
2023/12/11 02:23:28;;;;;;;0.40;0.40;;;13.50;70.70;;;;;;5014908;28;20030;-68
2023/12/11 02:26:14;;;;;;;1.70;1.38;;;13.50;70.80;;;;;;5013647;28;20575;-68
2023/12/11 02:28:40;;;;;;;0.40;0.40;;;13.40;71.10;;;;;;5021246;28;20025;-68
2023/12/11 02:31:06;;;;;;;0.50;0.50;;;13.40;71.30;;;;;;5014794;28;20091;-68
2023/12/11 02:33:31;;;;;;;0.73;0.73;;;13.40;71.60;;;;;;5033118;28;20087;-68
2023/12/11 02:35:57;;;;;;;1.30;1.20;;;13.50;71.60;;;;;;5033029;28;20091;-68
2023/12/11 02:38:22;;;;;;;0.60;0.60;;;13.50;71.50;;;;;;5033098;28;20112;-69
2023/12/11 02:40:48;;;;;;;0.40;0.40;;;13.40;71.30;;;;;;5032906;28;20104;-68
2023/12/11 02:43:13;;;;;;;0.40;0.40;;;13.40;71.50;;;;;;5033142;28;20450;-68
2023/12/11 02:45:39;;;;;;;1.17;1.08;;;13.50;71.80;;;;;;5032790;28;20060;-69
2023/12/11 02:48:05;;;;;;;0.40;0.40;;;13.60;71.90;;;;;;5032586;28;20091;-68
2023/12/11 02:50:31;;;;;;;0.70;0.70;;;13.70;71.80;;;;;;5032696;28;20105;-68
2023/12/11 02:52:58;;;;;;;0.50;0.50;;;13.70;71.80;;;;;;5015084;28;20030;-68
2023/12/11 02:55:23;;;;;;;0.82;0.82;;;13.70;71.70;;;;;;5032688;28;20026;-69
2023/12/11 02:57:49;;;;;;;0.40;0.40;;;13.80;71.80;;;;;;5031785;28;20369;-69
2023/12/11 03:00:15;;;;;;;0.50;0.50;;;13.80;71.90;;;;;;5032487;28;20459;-68
2023/12/11 03:02:40;;;;;;;0.40;0.40;;;13.80;71.80;;;;;;5032117;28;20034;-68
2023/12/11 03:05:06;;;;;;;0.93;0.93;;;13.90;71.90;;;;;;5032515;28;20515;-68
2023/12/11 03:07:32;;;;;;;0.85;0.85;;;13.90;71.90;;;;;;5014890;28;20099;-68
2023/12/11 03:09:57;;;;;;;0.40;0.40;;;13.90;71.60;;;;;;5013073;28;20428;-69
2023/12/11 03:12:22;;;;;;;0.50;0.50;;;13.90;71.40;;;;;;5012615;28;20046;-68
2023/12/11 03:14:48;;;;;;;1.48;1.38;;;13.90;71.20;;;;;;5012896;28;20030;-69
2023/12/11 03:17:14;;;;;;;0.40;0.40;;;13.80;71.20;;;;;;5011958;28;20030;-68
2023/12/11 03:19:39;;;;;;;1.25;1.15;;;13.80;71.40;;;;;;5012747;28;20437;-68
2023/12/11 03:22:05;;;;;;;0.60;0.60;;;13.80;71.60;;;;;;5012355;28;20056;-68
2023/12/11 03:24:30;;;;;;;0.50;0.50;;;13.80;71.60;;;;;;4994877;28;20096;-69
2023/12/11 03:26:56;;;;;;;0.57;0.57;;;13.80;71.60;;;;;;5012777;28;20068;-68
2023/12/11 03:29:21;;;;;;;0.90;0.90;;;13.80;71.60;;;;;;5023706;28;20091;-69
2023/12/11 03:31:47;;;;;;;0.50;0.50;;;13.80;71.60;;;;;;5031111;28;20044;-69
2023/12/11 03:34:12;;;;;;;0.93;0.93;;;13.80;71.60;;;;;;5030561;28;20044;-70
2023/12/11 03:36:38;;;;;;;0.40;0.40;;;13.80;71.60;;;;;;5031959;28;20029;-69
2023/12/11 03:39:03;;;;;;;1.00;0.90;;;13.70;71.70;;;;;;5031915;28;20034;-69
2023/12/11 03:41:29;;;;;;;1.38;1.27;;;13.70;71.70;;;;;;5031980;28;20038;-69
2023/12/11 03:43:54;;;;;;;0.43;0.43;;;13.70;71.90;;;;;;5032058;28;20040;-69
2023/12/11 03:46:20;;;;;;;0.77;0.77;;;13.70;71.90;;;;;;5032007;28;20068;-71
2023/12/11 03:48:45;;;;;;;0.80;0.77;;;13.70;72.00;;;;;;5032071;28;20045;-69
2023/12/11 03:51:11;;;;;;;0.40;0.40;;;13.70;71.90;;;;;;5031807;28;20459;-69
2023/12/11 03:53:36;;;;;;;0.50;0.50;;;13.70;71.90;;;;;;5030367;28;20026;-68
2023/12/11 03:56:02;;;;;;;0.82;0.82;;;13.70;72.00;;;;;;5031445;28;20033;-69
2023/12/11 03:58:27;;;;;;;0.40;0.40;;;13.70;72.20;;;;;;5031612;28;20061;-70
2023/12/11 04:00:53;;;;;;;0.45;0.45;;;13.80;72.10;;;;;;5031467;28;20104;-70
2023/12/11 04:03:18;;;;;;;0.45;0.45;;;13.80;72.00;;;;;;5031424;28;20041;-69
2023/12/11 04:05:44;;;;;;;0.52;0.52;;;13.80;71.90;;;;;;5001387;28;20385;-69
2023/12/11 04:08:09;;;;;;;6.75;2.92;;;13.90;72.00;;;;;;5012781;28;20049;-69
2023/12/11 04:10:35;;;;;;;0.50;0.50;;;13.90;71.80;;;;;;5031293;28;20021;-68
2023/12/11 04:13:01;;;;;;;0.40;0.40;;;13.90;71.70;;;;;;5023871;28;20042;-70
2023/12/11 04:15:27;;;;;;;0.63;0.63;;;13.90;71.40;;;;;;5027160;28;20400;-70
2023/12/11 04:17:52;;;;;;;0.45;0.45;;;14.00;71.50;;;;;;5031582;28;20017;-69
2023/12/11 04:20:18;;;;;;;0.40;0.40;;;13.90;71.70;;;;;;5031173;28;20502;-69
2023/12/11 04:22:43;;;;;;;0.40;0.40;;;13.90;71.50;;;;;;5030437;28;20508;-69
2023/12/11 04:25:09;;;;;;;1.05;0.85;;;13.90;71.40;;;;;;5030988;28;20358;-69
2023/12/11 04:27:34;;;;;;;0.47;0.47;;;13.80;71.50;;;;;;5030837;28;20124;-69
2023/12/11 04:30:00;;;;;;;0.80;0.80;;;13.80;71.50;;;;;;5030486;28;20052;-71
2023/12/11 04:32:25;;;;;;;0.43;0.43;;;13.70;71.30;;;;;;5023427;28;20030;-71
2023/12/11 04:34:51;;;;;;;0.60;0.60;;;13.70;71.10;;;;;;5011853;28;20088;-69
2023/12/11 04:37:16;;;;;;;0.40;0.40;;;13.70;71.10;;;;;;5009475;28;20026;-69
2023/12/11 04:39:42;;;;;;;0.40;0.40;;;13.70;71.30;;;;;;5009773;28;20117;-68
2023/12/11 04:42:07;;;;;;;4.13;1.40;;;13.70;71.30;;;;;;5009560;28;20068;-69
2023/12/11 04:44:33;;;;;;;0.55;0.55;;;13.60;71.20;;;;;;5009581;28;20433;-69
2023/12/11 04:46:58;;;;;;;0.50;0.50;;;13.60;71.10;;;;;;5009672;28;20030;-70
2023/12/11 04:49:24;;;;;;;0.60;0.60;;;13.60;71.10;;;;;;5010218;28;20432;-69
2023/12/11 04:51:50;;;;;;;0.47;0.47;;;13.50;71.20;;;;;;5017708;28;20109;-69
2023/12/11 04:54:15;;;;;;;0.70;0.70;;;13.50;71.20;;;;;;5027868;28;20029;-68
2023/12/11 04:56:40;;;;;;;9.90;1.95;;;13.50;71.30;;;;;;5012132;28;20449;-69
2023/12/11 04:59:06;;;;;;;0.40;0.40;;;13.60;71.40;;;;;;5021405;28;20038;-69
2023/12/11 05:01:31;;;;;;;0.40;0.40;;;13.60;71.40;;;;;;5018827;28;20559;-70
2023/12/11 05:03:57;;;;;;;1.45;1.33;;;13.60;71.50;;;;;;5011994;28;20077;-69
2023/12/11 05:06:23;;;;;;;0.63;0.63;;;13.60;71.60;;;;;;5013989;28;20433;-69
2023/12/11 05:08:48;;;;;;;0.40;0.40;;;13.50;71.70;;;;;;5011132;28;20037;-69
2023/12/11 05:11:14;;;;;;;0.70;0.70;;;13.50;71.70;;;;;;5023153;28;20144;-69
2023/12/11 05:13:39;;;;;;;0.93;0.93;;;13.60;71.60;;;;;;5030620;28;20249;-70
2023/12/11 05:16:05;;;;;;;0.68;0.68;;;13.60;71.60;;;;;;5027628;28;20033;-69
2023/12/11 05:18:31;;;;;;;0.40;0.40;;;13.60;71.70;;;;;;5019764;28;20359;-70
2023/12/11 05:20:56;;;;;;;1.15;1.13;;;13.60;71.80;;;;;;5011281;28;20029;-69
2023/12/11 05:23:22;;;;;;;3.00;2.25;;;13.70;71.90;;;;;;5022654;28;20050;-70
2023/12/11 05:25:47;;;;;;;3.65;1.45;;;13.70;71.70;;;;;;5030708;28;20431;-69
2023/12/11 05:28:13;;;;;;;0.45;0.45;;;13.70;71.70;;;;;;5030555;28;20073;-70
2023/12/11 05:30:38;;;;;;;2.63;1.58;;;13.80;71.70;;;;;;5030661;28;20396;-69
2023/12/11 05:33:04;;;;;;;0.40;0.40;;;13.80;71.80;;;;;;5030516;28;20033;-71
2023/12/11 05:35:29;;;;;;;2.83;1.13;;;13.80;71.60;;;;;;5030857;28;20499;-71
2023/12/11 05:37:57;;;;;;;1.05;1.00;;;13.80;71.50;;;;;;5030334;28;20087;-72
2023/12/11 05:40:23;;;;;;;2.70;1.05;;;13.70;71.30;;;;;;5015826;28;20023;-71
2023/12/11 05:42:48;;;;;;;0.50;0.50;;;13.70;71.20;;;;;;5026489;28;20033;-71
2023/12/11 05:45:14;;;;;;;0.50;0.50;;;13.60;71.40;;;;;;5033623;28;20064;-71
2023/12/11 05:47:39;;;;;;;0.40;0.40;;;13.50;71.50;;;;;;5034028;28;20427;-71
2023/12/11 05:50:05;;;;;;;0.98;0.98;;;13.50;71.60;;;;;;5016119;28;20453;-71
2023/12/11 05:52:31;;;;;;;0.40;0.40;;;13.50;71.60;;;;;;5046050;28;20760;-71
2023/12/11 05:54:57;;;;;;;0.82;0.82;;;13.50;71.70;;;;;;5042154;28;20109;-71
2023/12/11 05:57:22;;;;;;;0.40;0.40;;;13.40;71.90;;;;;;5025092;28;20464;-72
2023/12/11 05:59:48;;;;;;;0.80;0.80;;;13.40;72.00;;;;;;5034105;28;20033;-71
2023/12/11 06:02:14;;;;;;;0.45;0.45;;;13.40;72.00;;;;;;5016165;28;20109;-77
2023/12/11 06:04:39;;;;;;;0.70;0.60;;;13.40;72.10;;;;;;5015056;28;20042;-76
2023/12/11 06:07:06;;;;;;;0.70;0.70;;;13.30;72.00;;;;;;5028535;28;20041;-75
2023/12/11 06:09:31;;;;;;;3.83;1.15;;;13.40;72.10;;;;;;5033711;28;20037;-77
2023/12/11 06:11:57;;;;;;;6.03;0.95;;;13.30;72.20;;;;;;5032329;28;20033;-75
2023/12/11 06:14:23;;;;;;;2.50;1.20;;;13.30;72.30;;;;;;5041961;28;20052;-75
2023/12/11 06:16:48;;;;;;;1.08;0.93;;;13.30;72.30;;;;;;5038144;28;20021;-75
2023/12/11 06:19:14;;;;;;;1.17;1.08;;;13.30;72.30;;;;;;5038359;28;20532;-75
2023/12/11 06:21:40;;;;;;;2.75;1.25;;;13.30;72.40;;;;;;5033107;28;20022;-75
2023/12/11 06:24:06;;;;;;;1.20;0.98;;;13.30;72.40;;;;;;5019659;28;20171;-74
2023/12/11 06:26:34;;;;;;;0.50;0.50;;;13.30;72.50;;;;;;5022254;28;20447;-74
2023/12/11 06:29:00;;;;;;;1.20;0.90;;;13.30;72.50;;;;;;5029497;28;20025;-74
2023/12/11 06:31:27;;;;;;;0.40;0.40;;;13.30;72.50;;;;;;5045617;28;20025;-75
2023/12/11 06:33:53;;;;;;;0.40;0.40;;;13.30;72.50;;;;;;5054779;28;20065;-75
2023/12/11 06:36:19;;;;;;;0.40;0.40;;;13.30;72.50;;;;;;5052627;28;20029;-75
2023/12/11 06:38:44;;;;;;;0.40;0.40;;;13.30;72.50;;;;;;5046130;28;20305;-75
2023/12/11 06:41:10;;;;;;;0.50;0.50;;;13.30;72.60;;;;;;5048976;28;20466;-75
2023/12/11 06:43:35;;;;;;;6.95;1.80;;;13.40;72.60;;;;;;5047421;28;20116;-75
2023/12/11 06:46:02;;;;;;;0.40;0.40;;;13.40;72.40;;;;;;5037064;28;20135;-75
2023/12/11 06:48:28;;;;;;;0.63;0.63;;;13.30;72.40;;;;;;5034123;28;20038;-74
2023/12/11 06:50:54;;;;;;;0.60;0.60;;;13.40;72.40;;;;;;5034051;28;20113;-74
2023/12/11 06:53:19;;;;;;;0.60;0.60;;;13.30;72.30;;;;;;5028109;28;20060;-74
2023/12/11 06:55:45;;;;;;;0.50;0.50;;;13.30;72.40;;;;;;5030162;28;20018;-74
2023/12/11 06:58:10;;;;;;;0.40;0.40;;;13.30;72.40;;;;;;5031677;28;20120;-74
2023/12/11 07:00:36;;;;;;;0.40;0.40;;;13.30;72.50;;;;;;5042675;28;20046;-74
2023/12/11 07:03:02;;;;;;;0.50;0.50;;;13.30;72.60;;;;;;5014625;28;20046;-71
2023/12/11 07:05:28;;;;;;;0.50;0.50;;;13.30;72.60;;;;;;5023155;28;20104;-71
2023/12/11 07:07:53;;;;;;;4.68;1.73;;;13.30;72.70;;;;;;5004429;28;20112;-71
2023/12/11 07:10:19;;;;;;;0.40;0.40;;;13.30;72.70;;;;;;5020806;28;20133;-71
2023/12/11 07:12:46;;;;;;;0.43;0.43;;;13.30;72.60;;;;;;5029455;28;20571;-73
2023/12/11 07:15:12;;;;;;;0.50;0.50;;;13.30;72.60;;;;;;5026321;28;20382;-71
2023/12/11 07:17:37;;;;;;;0.50;0.50;;;13.30;72.60;;;;;;5017633;28;20033;-71
2023/12/11 07:20:04;;;;;;;0.63;0.60;;;13.30;72.60;;;;;;5012784;28;20033;-71
2023/12/11 07:22:31;;;;;;;0.60;0.60;;;13.40;72.70;;;;;;5012394;28;20516;-71
2023/12/11 07:24:56;;;;;;;0.85;0.85;;;13.30;72.70;;;;;;5012256;28;20079;-72
2023/12/11 07:27:22;;;;;;;0.95;0.95;;;13.30;72.70;;;;;;5012188;28;20157;-71
2023/12/11 07:29:47;;;;;;;0.40;0.40;;;13.30;72.70;;;;;;5021203;28;20385;-73
2023/12/11 07:32:13;;;;;;;0.50;0.50;;;13.40;72.60;;;;;;5013865;28;20025;-72
2023/12/11 07:34:39;;;;;;;0.40;0.40;;;13.40;72.40;;;;;;5032111;28;20393;-72
2023/12/11 07:37:04;;;;;;;0.45;0.45;;;13.30;72.60;;;;;;5031569;28;20022;-71
2023/12/11 07:39:30;;;;;;;0.40;0.40;;;13.30;72.70;;;;;;5028746;28;20083;-71
2023/12/11 07:41:55;;;;;;;0.45;0.45;;;13.30;72.80;;;;;;5030977;28;20079;-71
2023/12/11 07:44:21;;;;;;;0.43;0.43;;;13.30;72.90;;;;;;5031997;28;20033;-71
2023/12/11 07:46:46;;;;;;;0.47;0.47;;;13.30;72.90;;;;;;5030242;28;20039;-72
2023/12/11 07:49:15;;;;;;;0.50;0.50;;;13.30;72.90;;;;;;5030840;28;20116;-70
2023/12/11 07:51:40;;;;;;;0.50;0.50;;;13.30;72.80;;;;;;5028888;28;20057;-70
2023/12/11 07:54:06;;;;;;;5.10;1.45;;;13.30;72.90;;;;;;5014959;28;20072;-71
2023/12/11 07:56:31;;;;;;;0.40;0.40;;;13.30;73.10;;;;;;5031296;28;20057;-71
2023/12/11 07:58:57;;;;;;;0.47;0.47;;;13.30;73.10;;;;;;5029579;28;20033;-70
2023/12/11 08:01:22;;;;;;;0.50;0.50;;;13.30;73.20;;;;;;5012956;28;20554;-72
2023/12/11 08:03:48;;;;;;;1.35;1.25;;;13.40;73.10;;;;;;5026837;28;20037;-72
2023/12/11 08:06:13;;;;;;;1.65;1.25;;;13.40;73.20;;;;;;5015891;28;20392;-70
2023/12/11 08:08:45;;;;;;;0.63;0.63;;;13.50;73.10;;;;;;5011615;28;20370;-71
2023/12/11 08:11:15;;;;;;;0.40;0.40;;;13.50;73.00;;;;;;5022497;28;20049;-70
2023/12/11 08:13:42;;;;;;;0.50;0.50;;;13.60;73.00;;;;;;5026564;28;20306;-71
2023/12/11 08:16:08;;;;;;;0.60;0.60;;;13.70;73.10;;;;;;5017855;28;20453;-70
2023/12/11 08:18:33;;;;;;;0.65;0.65;;;13.70;73.00;;;;;;5030392;28;20029;-71
2023/12/11 08:20:59;;;;;;;0.80;0.80;;;13.80;73.00;;;;;;5030747;28;20083;-72
2023/12/11 08:23:24;;;;;;;1.02;0.95;;;13.90;73.00;;;;;;5029975;28;20056;-70
2023/12/11 08:25:50;;;;;;;0.52;0.52;;;13.90;72.80;;;;;;5030782;28;20071;-71
2023/12/11 08:28:15;;;;;;;1.67;1.50;;;14.00;72.60;;;;;;5030211;28;20119;-70
2023/12/11 08:30:40;;;;;;;0.65;0.65;;;14.00;72.70;;;;;;5030095;28;20064;-71
2023/12/11 08:33:06;;;;;;;0.40;0.40;;;14.00;72.60;;;;;;5030656;28;20041;-70
2023/12/11 08:35:31;;;;;;;0.30;0.30;;;14.00;72.50;;;;;;5029505;28;20041;-71
2023/12/11 08:37:57;;;;;;;1.65;0.88;;;14.00;72.50;;;;;;5030647;28;20018;-71
2023/12/11 08:40:23;;;;;;;3.30;1.65;;;14.00;72.40;;;;;;5030154;28;20025;-71
2023/12/11 08:42:49;;;;;;;0.52;0.52;;;14.00;72.30;;;;;;5029668;28;20026;-71
2023/12/11 08:45:14;;;;;;;0.40;0.40;;;14.00;72.40;;;;;;5029910;28;20040;-70
2023/12/11 08:47:43;;;;;;;0.55;0.55;;;14.00;72.50;;;;;;5029741;28;20489;-71
2023/12/11 08:50:09;;;;;;;0.43;0.43;;;14.00;72.40;;;;;;5029670;28;20388;-71
2023/12/11 08:52:35;;;;;;;0.82;0.82;;;14.00;72.40;;;;;;5029741;28;20029;-70
2023/12/11 08:55:01;;;;;;;0.40;0.40;;;14.00;72.30;;;;;;5030874;28;20156;-72
2023/12/11 08:57:28;;;;;;;0.40;0.40;;;13.90;72.20;;;;;;5028908;28;20508;-71
2023/12/11 08:59:54;;;;;;;0.40;0.40;;;13.90;72.40;;;;;;5021802;28;20172;-71
2023/12/11 09:02:19;;;;;;;0.60;0.60;;;13.80;72.50;;;;;;5030306;28;20630;-71
2023/12/11 09:04:45;;;;;;;0.40;0.40;;;13.90;72.40;;;;;;5030169;28;20068;-71
2023/12/11 09:07:10;;;;;;;0.50;0.50;;;13.80;72.40;;;;;;5029986;28;20034;-71
2023/12/11 09:09:37;;;;;;;0.73;0.73;;;13.80;72.30;;;;;;5012906;28;20079;-72
2023/12/11 09:12:03;;;;;;;0.50;0.50;;;13.80;72.30;;;;;;5029276;28;20623;-70
2023/12/11 09:14:29;;;;;;;0.40;0.40;;;13.80;72.40;;;;;;5030424;28;20068;-71
2023/12/11 09:16:55;;;;;;;0.68;0.68;;;13.70;72.60;;;;;;5033415;28;20429;-71
2023/12/11 09:19:20;;;;;;;0.30;0.30;;;13.70;72.50;;;;;;5032934;28;20042;-71
2023/12/11 09:21:45;;;;;;;0.40;0.40;;;13.70;72.50;;;;;;5037095;28;20025;-74
2023/12/11 09:24:12;;;;;;;0.40;0.40;;;13.70;72.70;;;;;;5058417;28;20025;-74
2023/12/11 09:26:37;;;;;;;0.50;0.50;;;13.70;72.80;;;;;;5058574;28;20025;-74
2023/12/11 09:29:03;;;;;;;0.40;0.40;;;13.70;72.80;;;;;;5057625;28;20372;-74
2023/12/11 09:31:29;;;;;;;0.55;0.55;;;13.70;72.50;;;;;;5058838;28;20034;-74
2023/12/11 09:33:54;;;;;;;0.50;0.50;;;13.70;72.70;;;;;;5057596;28;20032;-74
2023/12/11 09:36:20;;;;;;;0.68;0.68;;;13.70;72.70;;;;;;5059142;28;20033;-74
2023/12/11 09:38:45;;;;;;;0.50;0.50;;;13.70;73.10;;;;;;5040982;28;20022;-74
2023/12/11 09:41:11;;;;;;;0.50;0.50;;;13.70;72.90;;;;;;5040751;28;20070;-74
2023/12/11 09:43:37;;;;;;;0.50;0.50;;;13.70;72.80;;;;;;5039338;28;20029;-74
2023/12/11 09:46:08;;;;;;;0.50;0.50;;;13.70;72.90;;;;;;5049351;28;20068;-74
2023/12/11 09:48:34;;;;;;;0.50;0.50;;;13.80;72.80;;;;;;5057594;28;20057;-73
2023/12/11 09:51:01;;;;;;;0.60;0.60;;;13.70;72.90;;;;;;5056702;28;20013;-74
2023/12/11 09:53:29;;;;;;;0.40;0.40;;;13.70;72.90;;;;;;5057241;28;20036;-74
2023/12/11 09:55:55;;;;;;;0.40;0.40;;;13.80;72.90;;;;;;5056976;28;20029;-74
2023/12/11 09:58:22;;;;;;;0.80;0.80;;;13.80;73.00;;;;;;5056779;28;20041;-73
2023/12/11 10:00:48;;;;;;;0.60;0.60;;;13.80;73.20;;;;;;5056121;28;20436;-74
2023/12/11 10:03:15;;;;;;;0.52;0.52;;;13.80;73.00;;;;;;5055923;28;20038;-74
2023/12/11 10:05:41;;;;;;;0.68;0.68;;;13.80;73.10;;;;;;5055986;28;20009;-74
2023/12/11 10:08:06;;;;;;;0.40;0.40;;;13.80;73.10;;;;;;5056583;28;20024;-74
2023/12/11 10:10:33;;;;;;;0.50;0.50;;;13.80;73.10;;;;;;5044801;28;20041;-74
2023/12/11 10:13:00;;;;;;;0.40;0.40;;;13.80;73.00;;;;;;5037281;28;20002;-74
2023/12/11 10:15:28;;;;;;;0.50;0.50;;;13.80;73.00;;;;;;5052424;28;20038;-74
2023/12/11 10:18:11;;;;;;;0.40;0.40;;;13.80;73.00;;;;;;5056031;28;20029;-74
2023/12/11 10:20:39;;;;;;;0.55;0.55;;;13.80;73.00;;;;;;5049767;28;20017;-74
2023/12/11 10:23:18;;;;;;;0.50;0.50;;;13.80;72.90;;;;;;5056594;28;20034;-74
2023/12/11 10:25:45;;;;;;;4.82;2.67;;;13.80;73.10;;;;;;5039577;28;20113;-74
2023/12/11 10:28:13;;;;;;;0.40;0.40;;;13.80;73.10;;;;;;5056646;28;20022;-73
2023/12/11 10:30:52;;;;;;;0.50;0.50;;;13.80;72.90;;;;;;5057737;28;20028;-73
2023/12/11 10:33:18;;;;;;;0.40;0.40;;;13.80;72.90;;;;;;5039587;28;20033;-71
2023/12/11 10:35:45;;;;;;;2.00;1.70;;;13.80;72.90;;;;;;5032280;28;20033;-71
2023/12/11 10:38:12;;;;;;;0.60;0.60;;;13.80;72.90;;;;;;5032735;28;20398;-71
2023/12/11 10:40:41;;;;;;;0.40;0.40;;;13.80;72.90;;;;;;5031904;28;20032;-71
2023/12/11 10:43:07;;;;;;;0.40;0.40;;;13.80;72.90;;;;;;5032452;28;20034;-71
2023/12/11 10:45:34;;;;;;;0.50;0.50;;;13.80;72.80;;;;;;5032732;28;20388;-72
2023/12/11 10:48:01;;;;;;;0.40;0.40;;;13.80;72.70;;;;;;5032493;28;20034;-72
2023/12/11 10:50:27;;;;;;;0.40;0.40;;;13.80;72.70;;;;;;5031375;28;20068;-71
2023/12/11 10:52:53;;;;;;;0.40;0.40;;;13.80;72.90;;;;;;5032438;28;20033;-71
2023/12/11 10:55:18;;;;;;;0.45;0.45;;;13.70;72.80;;;;;;5004007;28;20129;-70
2023/12/11 10:57:45;;;;;;;0.47;0.47;;;13.80;72.70;;;;;;5027495;28;20536;-71
2023/12/11 11:00:14;;;;;;;0.40;0.40;;;13.70;72.80;;;;;;5031433;28;20436;-71
2023/12/11 11:02:48;;;;;;;0.40;0.40;;;13.70;72.70;;;;;;5032275;28;20033;-71
2023/12/11 11:05:15;;;;;;;0.50;0.50;;;13.80;72.80;;;;;;5030663;28;20099;-71
2023/12/11 11:08:02;;;;;;;0.40;0.40;;;13.70;72.80;;;;;;5031995;28;20051;-70
2023/12/11 11:10:54;;;;;;;0.40;0.40;;;13.80;72.70;;;;;;5023044;28;20034;-71
2023/12/11 11:13:24;;;;;;;0.50;0.50;;;13.70;72.80;;;;;;5032100;28;20076;-71
2023/12/11 11:15:53;;;;;;;3.45;1.38;;;13.70;72.90;;;;;;5021610;28;20068;-71
2023/12/11 11:18:19;;;;;;;0.40;0.40;;;13.70;72.90;;;;;;5025337;28;20022;-71
2023/12/11 11:21:18;;;;;;;0.40;0.40;;;13.70;72.80;;;;;;5025102;28;20021;-71
2023/12/11 11:23:45;;;;;;;0.50;0.50;;;13.60;72.80;;;;;;5030337;28;20044;-71
2023/12/11 11:26:34;;;;;;;0.50;0.50;;;13.70;72.90;;;;;;5031331;28;20018;-71
2023/12/11 11:29:04;;;;;;;0.40;0.40;;;13.70;73.00;;;;;;5031039;28;20038;-71
2023/12/11 11:31:50;;;;;;;0.40;0.40;;;13.70;73.00;;;;;;5030115;28;20435;-71
2023/12/11 11:34:41;;;;;;;0.43;0.43;;;13.70;73.00;;;;;;5031871;28;20134;-71
2023/12/11 11:37:14;;;;;;;;;;;13.70;73.00;;;;;;5025353;28;20044;-71
2023/12/11 11:39:59;;;;;;;0.50;0.50;;;13.70;72.80;;;;;;5031179;28;20383;-70
2023/12/11 11:42:26;;;;;;;0.40;0.40;;;13.70;72.90;;;;;;5039610;28;20005;-73
2023/12/11 11:45:03;;;;;;;0.50;0.50;;;13.60;72.90;;;;;;5054679;28;20056;-73
2023/12/11 11:47:31;;;;;;;0.40;0.40;;;13.60;73.00;;;;;;5035832;28;20082;-73
2023/12/11 11:50:11;;;;;;;0.50;0.50;;;13.70;73.10;;;;;;5034079;28;20030;-73
2023/12/11 11:52:38;;;;;;;0.50;0.50;;;13.70;73.20;;;;;;5046151;28;20047;-73
2023/12/11 11:55:17;;;;;;;0.45;0.45;;;13.70;73.20;;;;;;5052192;28;20096;-74
2023/12/11 11:57:43;;;;;;;0.50;0.50;;;13.80;73.30;;;;;;5045773;28;20074;-74
2023/12/11 12:00:08;;;;;;;0.50;0.50;;;13.80;73.30;;;;;;5043669;28;20473;-74
2023/12/11 12:02:34;;;;;;;0.60;0.60;;;13.90;73.30;;;;;;5042212;28;20117;-74
2023/12/11 12:05:09;;;;;;;0.40;0.40;;;14.00;73.20;;;;;;5022197;28;20037;-74
2023/12/11 12:07:39;;;;;;;0.40;0.40;;;14.00;73.00;;;;;;5044220;28;20049;-74
2023/12/11 12:10:06;;;;;;;0.47;0.47;;;14.00;72.70;;;;;;5019827;28;20034;-74
2023/12/11 12:12:32;;;;;;;0.40;0.40;;;14.00;72.70;;;;;;5035692;28;20697;-74
2023/12/11 12:15:07;;;;;;;0.40;0.40;;;14.10;72.60;;;;;;5033864;28;20038;-74
2023/12/11 12:17:33;;;;;;;0.47;0.47;;;14.00;72.60;;;;;;5019499;28;20030;-73
2023/12/11 12:19:58;;;;;;;1.05;0.95;;;14.00;72.40;;;;;;5035116;28;20104;-74
2023/12/11 12:22:24;;;;;;;0.60;0.60;;;14.00;72.40;;;;;;5045100;28;20025;-74
2023/12/11 12:24:51;;;;;;;0.43;0.43;;;14.00;72.30;;;;;;5050257;28;20037;-74
2023/12/11 12:27:22;;;;;;;0.40;0.40;;;13.90;72.30;;;;;;5050111;28;20120;-74
2023/12/11 12:29:49;;;;;;;0.50;0.50;;;13.90;72.40;;;;;;5037929;28;20038;-74
2023/12/11 12:32:15;;;;;;;0.40;0.40;;;13.90;72.50;;;;;;5031634;28;20033;-74
2023/12/11 12:34:45;;;;;;;0.40;0.40;;;13.90;72.50;;;;;;5037700;28;20040;-74
2023/12/11 12:37:13;;;;;;;0.40;0.40;;;13.90;72.40;;;;;;5039905;28;20081;-73
2023/12/11 12:39:38;;;;;;;0.45;0.45;;;13.90;72.60;;;;;;5034232;28;20021;-74
2023/12/11 12:42:04;;;;;;;0.93;0.88;;;14.00;72.70;;;;;;5051523;28;20080;-74
2023/12/11 12:44:30;;;;;;;0.50;0.50;;;14.00;72.70;;;;;;5050241;28;20073;-74
2023/12/11 12:47:03;;;;;;;0.40;0.40;;;14.00;72.70;;;;;;5044930;28;20040;-74